Time;durP1;ratioP1;P1;durP2;ratioP2;P2;SDS_P1;SDS_P2;PMS_P1;PMS_P2;Temp;Humidity;BMP_temperature;BMP_pressure;BME280_temperature;BME280_humidity;BME280_pressure;Samples;Min_cycle;Max_cycle;Signal;HPM_P1;HPM_P2
2021/05/09 00:00:20;;;;;;;;;;;;;;;21.66;66.88;100724.59;5140279;27;1306;-66
2021/05/09 00:03:05;;;;;;;;;;;;;;;21.65;66.55;100721.09;5140837;27;1973;-66
2021/05/09 00:05:50;;;;;;;;;;;;;;;21.66;66.95;100719.31;5138784;27;1397;-66
2021/05/09 00:08:35;;;;;;;;;;;;;;;21.65;66.81;100718.44;5139340;27;1026;-65
2021/05/09 00:11:20;;;;;;;;;;;;;;;21.65;66.70;100722.91;5125045;27;1350;-65
2021/05/09 00:14:04;;;;;;;;;;;;;;;21.65;66.84;100730.84;5140643;27;1065;-65
2021/05/09 00:16:49;;;;;;;;;;;;;;;21.64;66.65;100719.41;5138707;27;1398;-65
2021/05/09 00:19:34;;;;;;;;;;;;;;;21.64;66.82;100718.56;5139219;27;1108;-65
2021/05/09 00:22:19;;;;;;;;;;;;;;;21.64;66.69;100719.41;5139909;27;1065;-66
2021/05/09 00:25:06;;;;;;;;;;;;;;;21.64;67.03;100723.88;5140397;27;1299;-65
2021/05/09 00:27:51;;;;;;;;;;;;;;;21.64;66.73;100714.09;5138325;27;1042;-66
2021/05/09 00:30:36;;;;;;;;;;;;;;;21.64;66.86;100713.28;5139356;27;1346;-65
2021/05/09 00:33:21;;;;;;;;;;;;;;;21.64;66.86;100721.22;5124694;27;1215;-65
2021/05/09 00:36:06;;;;;;;;;;;;;;;21.63;66.78;100719.50;5140556;27;1373;-66
2021/05/09 00:38:51;;;;;;;;;;;;;;;21.64;66.77;100713.28;5139481;27;1204;-66
2021/05/09 00:41:35;;;;;;;;;;;;;;;21.63;66.57;100719.50;5138741;27;1417;-64
2021/05/09 00:44:20;;;;;;;;;;;;;;;21.63;66.53;100716.88;5137325;27;1906;-64
2021/05/09 00:47:08;;;;;;;;;;;;;;;21.63;66.53;100724.81;5139533;27;1396;-65
2021/05/09 00:49:54;;;;;;;;;;;;;;;21.62;66.47;100721.31;5138004;27;1605;-65
2021/05/09 00:52:39;;;;;;;;;;;;;;;21.62;66.49;100712.50;5124249;27;1094;-65
2021/05/09 00:55:25;;;;;;;;;;;;;;;21.61;66.89;100722.25;5139591;27;1400;-65
2021/05/09 00:58:11;;;;;;;;;;;;;;;21.62;66.46;100715.16;5140004;27;1037;-66
2021/05/09 01:00:56;;;;;;;;;;;;;;;21.62;66.51;100699.25;5138190;27;1334;-66
2021/05/09 01:03:41;;;;;;;;;;;;;;;21.61;66.62;100695.75;5138533;27;1910;-66
2021/05/09 01:06:26;;;;;;;;;;;;;;;21.62;66.51;100683.34;5139324;27;1299;-64
2021/05/09 01:09:11;;;;;;;;;;;;;;;21.61;66.79;100676.38;5139728;27;1053;-64
2021/05/09 01:11:56;;;;;;;;;;;;;;;21.59;66.37;100668.50;5137414;27;1275;-64
2021/05/09 01:14:41;;;;;;;;;;;;;;;21.60;66.55;100672.88;5138011;27;1306;-66
2021/05/09 01:17:26;;;;;;;;;;;;;;;21.60;66.39;100667.56;5139252;27;1030;-65
2021/05/09 01:20:14;;;;;;;;;;;;;;;21.59;66.37;100668.50;5138928;27;1322;-65
2021/05/09 01:22:58;;;;;;;;;;;;;;;21.60;66.55;100656.97;5137076;27;1965;-66
2021/05/09 01:25:43;;;;;;;;;;;;;;;21.60;66.55;100653.47;5137339;27;1395;-66
2021/05/09 01:28:28;;;;;;;;;;;;;;;21.58;66.33;100645.59;5137490;27;1093;-65
2021/05/09 01:31:13;;;;;;;;;;;;;;;21.59;66.23;100646.47;5139154;27;1326;-65
2021/05/09 01:33:58;;;;;;;;;;;;;;;21.59;66.32;100642.00;5137735;27;1022;-65
2021/05/09 01:36:43;;;;;;;;;;;;;;;21.58;66.55;100640.31;5138300;27;1705;-65
2021/05/09 01:39:28;;;;;;;;;;;;;;;21.57;66.49;100649.22;5138644;27;1165;-66
2021/05/09 01:42:12;;;;;;;;;;;;;;;21.58;66.25;100647.44;5139211;27;1133;-64
2021/05/09 01:44:58;;;;;;;;;;;;;;;21.56;66.17;100647.53;5136830;27;1902;-65
2021/05/09 01:47:43;;;;;;;;;;;;;;;21.58;66.46;100650.09;5137523;27;1085;-65
2021/05/09 01:50:27;;;;;;;;;;;;;;;21.57;66.15;100653.69;5117675;28;1319;-65
2021/05/09 01:53:12;;;;;;;;;;;;;;;21.56;66.04;100655.47;5118399;28;1061;-66
2021/05/09 01:55:57;;;;;;;;;;;;;;;21.57;66.11;100658.97;5118552;28;1137;-66
2021/05/09 01:58:42;;;;;;;;;;;;;;;21.57;66.12;100659.84;5116461;28;1030;-64
2021/05/09 02:01:26;;;;;;;;;;;;;;;21.56;66.01;100655.47;5117493;28;1144;-64
2021/05/09 02:04:12;;;;;;;;;;;;;;;21.56;66.04;100666.06;5118162;28;1965;-66
2021/05/09 02:06:56;;;;;;;;;;;;;;;21.56;65.92;100676.69;5116406;28;1214;-65
2021/05/09 02:09:41;;;;;;;;;;;;;;;21.54;66.30;100675.09;5116220;28;1326;-65
2021/05/09 02:12:25;;;;;;;;;;;;;;;21.55;65.94;100668.84;5116996;28;1077;-66
2021/05/09 02:15:12;;;;;;;;;;;;;;;21.56;65.88;100673.19;5117324;28;1208;-65
2021/05/09 02:17:56;;;;;;;;;;;;;;;21.54;65.94;100667.16;5117797;28;1030;-66
2021/05/09 02:20:41;;;;;;;;;;;;;;;21.54;66.28;100665.34;5115712;28;1293;-66
2021/05/09 02:23:27;;;;;;;;;;;;;;;21.53;66.18;100662.78;5116491;28;1962;-65
2021/05/09 02:26:11;;;;;;;;;;;;;;;21.53;65.95;100649.53;5117903;28;1223;-65
2021/05/09 02:28:56;;;;;;;;;;;;;;;21.54;65.98;100643.28;5118284;28;1014;-65
2021/05/09 02:31:40;;;;;;;;;;;;;;;21.53;66.18;100641.59;5100631;27;1169;-64
2021/05/09 02:34:25;;;;;;;;;;;;;;;21.53;65.87;100631.84;5120757;27;1070;-65
2021/05/09 02:37:10;;;;;;;;;;;;;;;21.53;65.97;100620.38;5121430;27;973;-66
2021/05/09 02:39:55;;;;;;;;;;;;;;;21.53;66.15;100615.09;5121595;27;1338;-66
2021/05/09 02:42:39;;;;;;;;;;;;;;;21.53;65.99;100609.78;5121602;27;1022;-63
2021/05/09 02:45:24;;;;;;;;;;;;;;;21.53;66.03;100612.44;5118999;27;1236;-66
2021/05/09 02:48:15;;;;;;;;;;;;;;;21.52;66.13;100608.94;5125421;27;1373;-65
2021/05/09 02:51:00;;;;;;;;;;;;;;;21.52;65.94;100600.16;5141933;27;1460;-65
2021/05/09 02:53:44;;;;;;;;;;;;;;;21.51;66.28;100591.34;5140051;27;1113;-64
2021/05/09 02:56:30;;;;;;;;;;;;;;;21.52;66.08;100586.91;5141106;27;1317;-65
2021/05/09 02:59:14;;;;;;;;;;;;;;;21.51;66.00;100578.09;5141585;27;1105;-66
2021/05/09 03:01:59;;;;;;;;;;;;;;;21.51;66.12;100570.16;5142669;27;1279;-63
2021/05/09 03:04:44;;;;;;;;;;;;;;;21.51;65.82;100567.50;5142179;27;1961;-64
2021/05/09 03:07:29;;;;;;;;;;;;;;;21.52;65.90;100560.41;5140689;27;1049;-65
2021/05/09 03:10:14;;;;;;;;;;;;;;;21.52;65.99;100561.22;5141472;27;1346;-66
2021/05/09 03:12:58;;;;;;;;;;;;;;;21.51;65.89;100548.09;5141901;27;1128;-65
2021/05/09 03:15:43;;;;;;;;;;;;;;;21.51;65.94;100545.44;5126247;27;1345;-64
2021/05/09 03:18:28;;;;;;;;;;;;;;;21.50;65.84;100541.94;5139622;27;1007;-64
2021/05/09 03:21:14;;;;;;;;;;;;;;;21.51;65.80;100538.34;5140643;27;1203;-65
2021/05/09 03:23:59;;;;;;;;;;;;;;;21.50;65.82;100534.00;5140538;27;1962;-65
2021/05/09 03:26:43;;;;;;;;;;;;;;;21.51;65.72;100532.19;5126007;27;1222;-65
2021/05/09 03:29:28;;;;;;;;;;;;;;;21.51;65.63;100537.50;5139591;27;1034;-67
2021/05/09 03:32:13;;;;;;;;;;;;;;;21.50;65.77;100523.41;5125919;27;1066;-64
2021/05/09 03:34:58;;;;;;;;;;;;;;;21.51;65.67;100521.59;5140977;27;1310;-65
2021/05/09 03:37:42;;;;;;;;;;;;;;;21.51;66.06;100511.00;5141102;27;1089;-65
2021/05/09 03:40:27;;;;;;;;;;;;;;;21.51;65.84;100511.00;5141502;27;1301;-65
2021/05/09 03:43:12;;;;;;;;;;;;;;;21.50;66.09;100506.66;5124308;27;1976;-65
2021/05/09 03:45:56;;;;;;;;;;;;;;;21.51;65.86;100505.69;5140678;27;1207;-65
2021/05/09 03:48:41;;;;;;;;;;;;;;;21.51;65.93;100511.00;5140823;27;1473;-65
2021/05/09 03:51:26;;;;;;;;;;;;;;;21.52;65.71;100502.09;5141374;27;1306;-63
2021/05/09 03:54:11;;;;;;;;;;;;;;;21.52;65.14;100502.09;5139241;27;926;-65
2021/05/09 03:56:56;;;;;;;;;;;;;;;21.52;65.07;100507.41;5140295;27;1338;-65
2021/05/09 03:59:41;;;;;;;;;;;;;;;21.52;65.49;100512.69;5125462;27;1082;-65
2021/05/09 04:02:25;;;;;;;;;;;;;;;21.52;65.63;100518.00;5140961;27;963;-65
2021/05/09 04:05:11;;;;;;;;;;;;;;;21.52;65.65;100512.69;5138914;27;1954;-64
2021/05/09 04:07:56;;;;;;;;;;;;;;;21.52;65.47;100512.69;5139441;27;1071;-64
2021/05/09 04:10:41;;;;;;;;;;;;;;;21.51;65.57;100517.16;5139964;27;1333;-64
2021/05/09 04:13:25;;;;;;;;;;;;;;;21.53;65.51;100511.72;5137558;27;1014;-65
2021/05/09 04:16:10;;;;;;;;;;;;;;;21.52;65.73;100512.69;5138665;27;1314;-65
2021/05/09 04:18:54;;;;;;;;;;;;;;;21.52;65.74;100518.00;5139161;27;998;-65
2021/05/09 04:21:39;;;;;;;;;;;;;;;21.52;65.80;100516.16;5139538;27;1251;-65
2021/05/09 04:24:24;;;;;;;;;;;;;;;21.51;65.90;100506.53;5140347;27;1925;-64
2021/05/09 04:27:09;;;;;;;;;;;;;;;21.53;65.82;100501.13;5140841;27;1129;-65
2021/05/09 04:29:53;;;;;;;;;;;;;;;21.52;65.71;100496.78;5138774;27;1303;-65
2021/05/09 04:32:38;;;;;;;;;;;;;;;21.53;65.84;100506.41;5139023;27;1036;-66
2021/05/09 04:35:22;;;;;;;;;;;;;;;21.52;65.84;100502.09;5139414;27;1309;-64
2021/05/09 04:38:07;;;;;;;;;;;;;;;21.52;65.60;100507.41;5140414;27;1034;-65
2021/05/09 04:40:52;;;;;;;;;;;;;;;21.51;65.97;100506.53;5139631;27;1358;-65
2021/05/09 04:43:38;;;;;;;;;;;;;;;21.51;65.74;100498.59;5137654;27;1901;-65
2021/05/09 04:46:23;;;;;;;;;;;;;;;21.50;65.70;100498.69;5139627;27;1451;-66
2021/05/09 04:49:08;;;;;;;;;;;;;;;21.50;65.90;100493.38;5140276;27;1242;-64
2021/05/09 04:51:53;;;;;;;;;;;;;;;21.50;65.92;100496.03;5140577;27;1362;-66
2021/05/09 04:54:38;;;;;;;;;;;;;;;21.49;66.13;100478.47;5138883;27;1176;-66
2021/05/09 04:57:23;;;;;;;;;;;;;;;21.52;65.89;100488.84;5138237;27;1026;-64
2021/05/09 05:00:07;;;;;;;;;;;;;;;21.51;65.88;100487.16;5139751;27;1325;-65
2021/05/09 05:02:52;;;;;;;;;;;;;;;21.50;66.09;100473.03;5139578;27;1070;-66
2021/05/09 05:05:38;;;;;;;;;;;;;;;21.50;66.15;100486.28;5138033;27;1298;-66
2021/05/09 05:08:26;;;;;;;;;;;;;;;21.50;66.02;100483.66;5139061;27;1085;-66
2021/05/09 05:11:11;;;;;;;;;;;;;;;21.49;66.07;100481.94;5139801;27;1231;-66
2021/05/09 05:13:56;;;;;;;;;;;;;;;21.49;66.04;100481.94;5124045;27;1117;-66
2021/05/09 05:16:41;;;;;;;;;;;;;;;21.50;65.95;100488.09;5138620;27;1198;-66
2021/05/09 05:19:25;;;;;;;;;;;;;;;21.50;66.16;100488.09;5138672;27;1038;-66
2021/05/09 05:22:10;;;;;;;;;;;;;;;21.51;65.97;100487.16;5139260;27;1121;-66
2021/05/09 05:24:55;;;;;;;;;;;;;;;21.50;66.15;100488.09;5139503;27;1905;-65
2021/05/09 05:27:40;;;;;;;;;;;;;;;21.51;66.82;100493.28;5136571;27;1242;-68
2021/05/09 05:30:25;;;;;;;;;;;;;;;21.51;66.77;100500.41;5122933;27;1295;-70
2021/05/09 05:33:22;;;;;;;;;;;;;;;21.50;66.56;100509.28;5138253;27;1066;-69
2021/05/09 05:36:09;;;;;;;;;;;;;;;21.50;66.69;100514.59;5123500;27;1315;-66
2021/05/09 05:38:53;;;;;;;;;;;;;;;21.56;67.08;100515.00;5139132;27;1238;-63
2021/05/09 05:41:39;;;;;;;;;;;;;;;21.54;66.76;100519.56;5122511;27;1362;-66
2021/05/09 05:44:24;;;;;;;;;;;;;;;21.53;66.91;100522.31;5137425;27;1988;-69
2021/05/09 05:47:08;;;;;;;;;;;;;;;21.52;67.05;100515.34;5138876;27;1066;-69
2021/05/09 05:49:55;;;;;;;;;;;;;;;21.51;67.20;100514.50;5139100;27;1518;-70
2021/05/09 05:52:40;;;;;;;;;;;;;;;21.52;66.84;100513.53;5123569;27;1078;-68
2021/05/09 05:55:25;;;;;;;;;;;;;;;21.52;66.64;100518.81;5137089;27;1406;-67
2021/05/09 05:58:10;;;;;;;;;;;;;;;21.52;66.86;100516.16;5137852;27;1077;-69
2021/05/09 06:00:54;;;;;;;;;;;;;;;21.52;66.88;100510.06;5122198;27;1298;-68
2021/05/09 06:03:40;;;;;;;;;;;;;;;21.53;67.03;100514.38;5138028;27;1909;-66
2021/05/09 06:06:24;;;;;;;;;;;;;;;21.52;66.85;100512.69;5136720;27;1310;-68
2021/05/09 06:09:09;;;;;;;;;;;;;;;21.52;66.65;100518.00;5126604;27;1117;-67
2021/05/09 06:11:53;;;;;;;;;;;;;;;21.52;66.79;100515.34;5143317;27;1366;-67
2021/05/09 06:14:38;;;;;;;;;;;;;;;21.52;66.68;100518.00;5143407;27;1151;-66
2021/05/09 06:17:23;;;;;;;;;;;;;;;21.53;66.54;100519.66;5140725;27;1070;-66
2021/05/09 06:20:08;;;;;;;;;;;;;;;21.51;66.44;100517.16;5141517;27;1334;-68
2021/05/09 06:23:02;;;;;;;;;;;;;;;21.51;66.40;100518.94;5142543;27;1124;-67
2021/05/09 06:25:47;;;;;;;;;;;;;;;21.53;66.81;100514.38;5141117;27;1330;-67
2021/05/09 06:28:32;;;;;;;;;;;;;;;21.51;66.50;100508.34;5142422;27;1033;-68
2021/05/09 06:31:17;;;;;;;;;;;;;;;21.52;66.83;100508.22;5142828;27;1310;-65
2021/05/09 06:34:02;;;;;;;;;;;;;;;21.52;66.59;100510.06;5140947;27;1099;-67
2021/05/09 06:36:48;;;;;;;;;;;;;;;21.52;66.65;100518.00;5126867;27;1247;-67
2021/05/09 06:39:32;;;;;;;;;;;;;;;21.52;66.47;100515.34;5141382;27;1053;-66
2021/05/09 06:42:17;;;;;;;;;;;;;;;21.52;66.75;100508.22;5142702;27;1093;-67
2021/05/09 06:45:07;;;;;;;;;;;;;;;21.52;66.45;100507.41;5140964;27;1897;-67
2021/05/09 06:47:57;;;;;;;;;;;;;;;21.52;66.78;100502.09;5142341;27;1132;-68
2021/05/09 06:50:42;;;;;;;;;;;;;;;21.52;66.86;100496.78;5126870;27;1278;-66
2021/05/09 06:53:27;;;;;;;;;;;;;;;21.54;66.79;100495.72;5126867;27;1132;-65
2021/05/09 06:56:11;;;;;;;;;;;;;;;21.54;66.63;100497.53;5126362;27;1291;-66
2021/05/09 06:58:56;;;;;;;;;;;;;;;21.48;66.31;100501.47;5142411;27;1101;-65
2021/05/09 07:01:41;;;;;;;;;;;;;;;21.46;65.99;100494.59;5118048;27;1318;-66
2021/05/09 07:04:26;;;;;;;;;;;;;;;21.44;66.17;100505.28;5126436;27;1886;-66
2021/05/09 07:07:10;;;;;;;;;;;;;;;21.42;65.83;100485.16;5126705;27;1156;-64
2021/05/09 07:09:55;;;;;;;;;;;;;;;21.42;65.96;100474.56;5141758;27;1389;-64
2021/05/09 07:12:40;;;;;;;;;;;;;;;21.42;65.96;100471.91;5141007;27;1121;-66
2021/05/09 07:15:32;;;;;;;;;;;;;;;21.43;66.02;100463.00;5122511;27;1311;-65
2021/05/09 07:18:22;;;;;;;;;;;;;;;21.40;65.77;100465.88;5139689;27;1152;-67
2021/05/09 07:21:16;;;;;;;;;;;;;;;21.40;66.02;100464.06;5138380;27;1279;-68
2021/05/09 07:24:01;;;;;;;;;;;;;;;21.40;66.33;100455.28;5140592;27;1901;-68
2021/05/09 07:26:47;;;;;;;;;;;;;;;21.40;66.29;100434.09;5130689;27;1267;-67
2021/05/09 07:29:32;;;;;;;;;;;;;;;21.41;65.83;100435.75;5140788;27;990;-67
2021/05/09 07:32:16;;;;;;;;;;;;;;;21.52;66.33;100428.72;5139458;27;1085;-69
2021/05/09 07:35:01;;;;;;;;;;;;;;;21.51;66.01;100442.09;5140364;27;1405;-68
2021/05/09 07:37:46;;;;;;;;;;;;;;;21.51;65.17;100445.59;5126080;27;1055;-67
2021/05/09 07:40:31;;;;;;;;;;;;;;;21.47;64.99;100441.47;5139183;27;1405;-67
2021/05/09 07:43:28;;;;;;;;;;;;;;;21.48;65.63;100437.00;5134832;27;1906;-67
2021/05/09 07:46:13;;;;;;;;;;;;;;;21.46;65.03;100445.06;5138650;27;1307;-73
2021/05/09 07:48:58;;;;;;;;;;;;;;;21.46;64.94;100449.53;5140669;27;1202;-67
2021/05/09 07:51:43;;;;;;;;;;;;;;;21.44;64.74;100436.38;5135548;27;1326;-68
2021/05/09 07:54:28;;;;;;;;;;;;;;;21.42;64.70;100438.31;5139767;27;1050;-69
2021/05/09 07:57:15;;;;;;;;;;;;;;;21.43;64.90;100433.88;5139084;27;1105;-69
2021/05/09 07:59:59;;;;;;;;;;;;;;;21.45;64.48;100434.59;5139860;27;1314;-70
2021/05/09 08:02:49;;;;;;;;;;;;;;;21.44;64.67;100435.53;5140246;27;1135;-73
2021/05/09 08:05:34;;;;;;;;;;;;;;;21.45;64.31;100426.63;5115949;27;1906;-71
2021/05/09 08:08:20;;;;;;;;;;;;;;;21.47;65.02;100424.72;5139160;27;1097;-71
2021/05/09 08:11:05;;;;;;;;;;;;;;;21.49;65.02;100426.28;5138658;27;1390;-69
2021/05/09 08:13:50;;;;;;;;;;;;;;;21.51;65.05;100429.69;5140299;27;1246;-68
2021/05/09 08:16:34;;;;;;;;;;;;;;;21.63;65.16;100434.09;5137099;27;1295;-63
2021/05/09 08:19:19;;;;;;;;;;;;;;;21.62;65.77;100423.59;5139792;27;1057;-65
2021/05/09 08:22:04;;;;;;;;;;;;;;;21.59;64.38;100426.47;5122927;27;1295;-64
2021/05/09 08:24:49;;;;;;;;;;;;;;;21.60;64.50;100414.91;5140713;27;1930;-66
2021/05/09 08:27:34;;;;;;;;;;;;;;;21.58;64.59;100408.88;5140920;27;1154;-64
2021/05/09 08:30:21;;;;;;;;;;;;;;;21.60;65.03;100406.97;5124171;27;1340;-67
2021/05/09 08:33:06;;;;;;;;;;;;;;;21.69;64.50;100403.63;5141661;27;1093;-64
2021/05/09 08:35:51;;;;;;;;;;;;;;;21.53;63.83;100403.06;5137968;27;1396;-66
2021/05/09 08:38:36;;;;;;;;;;;;;;;21.46;63.17;100405.31;5135846;27;1099;-67
2021/05/09 08:41:22;;;;;;;;;;;;;;;21.41;62.53;100403.97;5136897;27;1299;-66
2021/05/09 08:44:10;;;;;;;;;;;;;;;21.32;63.01;100399.34;5121424;27;1975;-68
2021/05/09 08:46:55;;;;;;;;;;;;;;;21.35;62.20;100389.38;5133716;27;1322;-67
2021/05/09 08:49:41;;;;;;;;;;;;;;;21.34;62.28;100370.94;5116654;27;1385;-65
2021/05/09 08:52:26;;;;;;;;;;;;;;;21.35;62.13;100365.53;5118767;27;1057;-68
2021/05/09 08:55:13;;;;;;;;;;;;;;;21.33;61.44;100363.94;5119306;27;1314;-65
2021/05/09 08:57:58;;;;;;;;;;;;;;;21.27;61.51;100365.25;5116486;27;1029;-66
2021/05/09 09:00:43;;;;;;;;;;;;;;;21.30;61.07;100372.13;5117400;27;1254;-65
2021/05/09 09:03:28;;;;;;;;;;;;;;;21.18;61.77;100373.88;5118759;27;1914;-66
2021/05/09 09:06:17;;;;;;;;;;;;;;;21.26;61.67;100374.16;5116060;27;1290;-68
2021/05/09 09:09:02;;;;;;;;;;;;;;;21.30;61.53;100365.03;5117469;27;1089;-67
2021/05/09 09:11:49;;;;;;;;;;;;;;;21.18;61.55;100363.28;5116010;27;1310;-66
2021/05/09 09:14:33;;;;;;;;;;;;;;;21.22;61.45;100362.91;5118582;27;1117;-63
2021/05/09 09:17:19;;;;;;;;;;;;;;;21.23;61.46;100354.03;5115717;27;1078;-67
2021/05/09 09:20:07;;;;;;;;;;;;;;;21.29;61.53;100333.34;5117706;27;1299;-65
2021/05/09 09:22:55;;;;;;;;;;;;;;;21.34;61.37;100333.84;5116844;27;1058;-65
2021/05/09 09:25:41;;;;;;;;;;;;;;;21.35;62.18;100325.78;5116888;27;1901;-66
2021/05/09 09:28:32;;;;;;;;;;;;;;;21.38;62.33;100322.91;5116899;27;1250;-66
2021/05/09 09:31:33;;;;;;;;;;;;;;;21.38;62.66;100303.50;5115999;28;1313;-65
2021/05/09 09:34:18;;;;;;;;;;;;;;;21.41;63.40;100271.47;5116252;28;1303;-66
2021/05/09 09:37:03;;;;;;;;;;;;;;;21.43;63.23;100243.91;5115971;28;1460;-66
2021/05/09 09:39:54;;;;;;;;;;;;;;;21.40;63.30;100248.63;5116849;28;1336;-66
2021/05/09 09:42:38;;;;;;;;;;;;;;;21.43;63.06;100266.94;5117454;27;1196;-66
2021/05/09 09:45:31;;;;;;;;;;;;;;;21.45;63.05;100295.00;5120255;27;1906;-65
2021/05/09 09:48:15;;;;;;;;;;;;;;;21.44;63.21;100282.69;5126797;27;1265;-64
2021/05/09 09:51:00;;;;;;;;;;;;;;;21.47;63.35;100268.38;5140958;27;1401;-64
2021/05/09 09:53:45;;;;;;;;;;;;;;;21.48;63.48;100283.31;5140350;27;1168;-64
2021/05/09 09:56:30;;;;;;;;;;;;;;;21.47;63.76;100286.91;5140493;27;1342;-64
2021/05/09 09:59:14;;;;;;;;;;;;;;;21.49;63.74;100308.88;5143081;27;1066;-65
2021/05/09 10:02:01;;;;;;;;;;;;;;;21.50;64.01;100329.09;5140199;27;1417;-65
2021/05/09 10:04:46;;;;;;;;;;;;;;;21.51;63.14;100344.03;5126641;27;1963;-65
2021/05/09 10:07:31;;;;;;;;;;;;;;;21.63;64.63;100359.03;5141923;27;1285;-71
2021/05/09 10:10:17;;;;;;;;;;;;;;;21.66;63.30;100364.09;5142553;27;1314;-67
2021/05/09 10:13:02;;;;;;;;;;;;;;;21.63;63.07;100366.97;5140696;27;1307;-67
2021/05/09 10:15:46;;;;;;;;;;;;;;;21.66;63.30;100378.19;5140353;27;1311;-64
2021/05/09 10:18:31;;;;;;;;;;;;;;;21.68;63.35;100373.63;5142398;27;1111;-68
2021/05/09 10:21:17;;;;;;;;;;;;;;;21.68;63.04;100375.41;5138893;27;1410;-67
2021/05/09 10:24:21;;;;;;;;;;;;;;;21.66;62.48;100370.25;5124647;27;1909;-70
2021/05/09 10:27:10;;;;;;;;;;;;;;;21.68;62.82;100349.75;5139036;27;1112;-67
2021/05/09 10:29:55;;;;;;;;;;;;;;;21.68;62.63;100338.31;5141094;27;1428;-67
2021/05/09 10:32:39;;;;;;;;;;;;;;;21.68;62.26;100330.34;5138856;27;1115;-62
2021/05/09 10:35:35;;;;;;;;;;;;;;;21.67;62.41;100326.84;5139618;27;1498;-65
2021/05/09 10:38:19;;;;;;;;;;;;;;;21.73;63.09;100320.28;5141714;27;1034;-68
2021/05/09 10:41:12;;;;;;;;;;;;;;;21.73;63.25;100309.66;5142217;27;1322;-67
2021/05/09 10:43:57;;;;;;;;;;;;;;;21.76;62.62;100314.72;5140925;27;1995;-65
2021/05/09 10:47:01;;;;;;;;;;;;;;;21.71;61.53;100295.66;5141993;27;1299;-67
2021/05/09 10:50:05;;;;;;;;;;;;;;;21.70;62.27;100300.13;5139901;27;1306;-65
2021/05/09 10:52:51;;;;;;;;;;;;;;;21.68;62.51;100275.53;5138926;27;1238;-70
2021/05/09 10:55:36;;;;;;;;;;;;;;;21.73;63.49;100276.03;5140672;27;1424;-70
2021/05/09 10:58:43;;;;;;;;;;;;;;;21.82;63.40;100266.53;5140158;27;1030;-64
2021/05/09 11:01:29;;;;;;;;;;;;;;;21.78;63.07;100286.28;5139987;27;1420;-64
2021/05/09 11:04:14;;;;;;;;;;;;;;;21.75;62.39;100273.28;5138838;27;1901;-64
2021/05/09 11:06:59;;;;;;;;;;;;;;;21.80;62.49;100268.44;5139909;27;1382;-63
2021/05/09 11:09:44;;;;;;;;;;;;;;;21.78;62.56;100265.94;5137249;27;1389;-63
2021/05/09 11:12:48;;;;;;;;;;;;;;;21.79;62.55;100280.03;5140910;27;1256;-64
2021/05/09 11:15:33;;;;;;;;;;;;;;;21.81;63.51;100278.09;5139845;27;1271;-65
2021/05/09 11:18:19;;;;;;;;;;;;;;;21.78;62.13;100265.94;5139031;27;1069;-66
2021/05/09 11:21:05;;;;;;;;;;;;;;;21.74;62.66;100263.63;5142460;27;1359;-66
2021/05/09 11:23:51;;;;;;;;;;;;;;;21.76;61.74;100267.00;5139537;27;1976;-64
2021/05/09 11:26:56;;;;;;;;;;;;;;;21.74;61.71;100276.88;5140579;27;1231;-64
2021/05/09 11:29:47;;;;;;;;;;;;;;;21.73;61.69;100285.81;5137693;27;1385;-65
2021/05/09 11:32:32;;;;;;;;;;;;;;;21.74;62.22;100295.44;5125217;27;1053;-65
2021/05/09 11:35:17;;;;;;;;;;;;;;;21.73;62.07;100288.47;5140830;27;1440;-64
2021/05/09 11:38:02;;;;;;;;;;;;;;;21.75;62.25;100281.22;5121897;27;1259;-65
2021/05/09 11:40:47;;;;;;;;;;;;;;;21.74;62.17;100280.38;5138083;27;1327;-64
2021/05/09 11:43:32;;;;;;;;;;;;;;;21.78;62.18;100281.84;5118375;27;1704;-66
2021/05/09 11:46:17;;;;;;;;;;;;;;;21.78;62.29;100296.91;5120602;27;1335;-66
2021/05/09 11:49:13;;;;;;;;;;;;;;;21.78;63.10;100286.28;5139531;27;1226;-66
2021/05/09 11:51:59;;;;;;;;;;;;;;;21.77;63.45;100260.72;5122320;27;1522;-67
2021/05/09 11:54:54;;;;;;;;;;;;;;;21.78;64.03;100259.78;5134788;27;1283;-64
2021/05/09 11:57:40;;;;;;;;;;;;;;;21.79;64.13;100221.72;5136121;27;1323;-67
2021/05/09 12:00:25;;;;;;;;;;;;;;;21.78;64.33;100233.28;5136968;27;1306;-65
2021/05/09 12:03:10;;;;;;;;;;;;;;;21.80;65.18;100202.16;5140559;27;1216;-68
2021/05/09 12:06:07;;;;;;;;;;;;;;;21.83;65.89;100219.63;5121570;27;1906;-69
2021/05/09 12:08:52;;;;;;;;;;;;;;;21.84;65.90;100256.66;5140559;27;1165;-69
2021/05/09 12:11:40;;;;;;;;;;;;;;;21.84;66.04;100198.31;5137221;27;1322;-69
2021/05/09 12:14:26;;;;;;;;;;;;;;;21.86;66.82;100252.06;5124173;27;1081;-72
2021/05/09 12:17:18;;;;;;;;;;;;;;;21.90;66.59;100271.28;5126346;27;1170;-71
2021/05/09 12:20:05;;;;;;;;;;;;;;;21.88;66.96;100246.66;5124310;27;1303;-71
2021/05/09 12:22:51;;;;;;;;;;;;;;;21.89;67.21;100248.34;5123461;27;1225;-68
2021/05/09 12:25:39;;;;;;;;;;;;;;;21.89;67.47;100214.75;5136914;27;1998;-69
2021/05/09 12:28:29;;;;;;;;;;;;;;;21.91;67.65;100175.72;5139099;27;1192;-73
2021/05/09 12:31:18;;;;;;;;;;;;;;;21.98;68.34;100158.31;5135682;27;1303;-70
2021/05/09 12:34:03;;;;;;;;;;;;;;;21.98;68.24;100137.13;5138839;27;1122;-71
2021/05/09 12:37:03;;;;;;;;;;;;;;;21.99;67.70;100194.50;5138815;27;1393;-70
2021/05/09 12:39:48;;;;;;;;;;;;;;;21.98;68.46;100214.00;5138453;27;1410;-70
2021/05/09 12:42:54;;;;;;;;;;;;;;;22.05;70.29;100196.66;5139033;27;1173;-73
2021/05/09 12:45:40;;;;;;;;;;;;;;;22.03;69.20;100185.34;5123046;27;1909;-73
2021/05/09 12:48:29;;;;;;;;;;;;;;;22.12;70.37;100192.56;5122792;27;1535;-73
2021/05/09 12:51:19;;;;;;;;;;;;;;;22.10;69.59;100189.19;5123320;27;1390;-73
2021/05/09 12:54:03;;;;;;;;;;;;;;;22.10;69.83;100191.81;5137023;27;1130;-71
2021/05/09 12:56:48;;;;;;;;;;;;;;;22.12;70.06;100189.91;5138335;27;1430;-74
2021/05/09 12:59:44;;;;;;;;;;;;;;;22.10;69.85;100175.91;5137551;27;1611;-71
2021/05/09 13:02:32;;;;;;;;;;;;;;;22.12;69.72;100141.31;5124078;27;1192;-73
2021/05/09 13:05:19;;;;;;;;;;;;;;;22.13;69.71;100132.41;5133488;27;1973;-68
2021/05/09 13:08:04;;;;;;;;;;;;;;;22.10;69.48;100125.53;5131862;27;1650;-68
2021/05/09 13:10:49;;;;;;;;;;;;;;;22.07;69.47;100131.06;5132878;27;1295;-71
2021/05/09 13:13:33;;;;;;;;;;;;;;;22.09;69.71;100126.50;5136219;27;1074;-68
2021/05/09 13:16:18;;;;;;;;;;;;;;;22.10;69.27;100116.75;5136913;27;1266;-71
2021/05/09 13:19:03;;;;;;;;;;;;;;;22.10;69.24;100111.44;5130631;27;1142;-72
2021/05/09 13:21:48;;;;;;;;;;;;;;;22.09;69.00;100104.44;5118777;27;1398;-71
2021/05/09 13:24:35;;;;;;;;;;;;;;;22.10;69.33;100093.69;5134800;27;1914;-73
2021/05/09 13:27:20;;;;;;;;;;;;;;;22.14;68.75;100087.19;5135453;27;1013;-70
2021/05/09 13:30:07;;;;;;;;;;;;;;;22.12;69.08;100089.13;5135822;27;1393;-71
2021/05/09 13:32:51;;;;;;;;;;;;;;;22.12;68.92;100098.88;5133345;27;1056;-68
2021/05/09 13:35:37;;;;;;;;;;;;;;;22.11;68.86;100113.97;5136793;27;1330;-69
2021/05/09 13:38:22;;;;;;;;;;;;;;;22.11;68.87;100095.38;5135002;27;1263;-69
2021/05/09 13:41:06;;;;;;;;;;;;;;;22.10;68.95;100069.81;5134740;27;1358;-72
2021/05/09 13:43:51;;;;;;;;;;;;;;;22.11;68.91;100066.22;5132984;27;1076;-70
2021/05/09 13:46:35;;;;;;;;;;;;;;;22.10;68.89;100051.25;5136840;27;1410;-70
2021/05/09 13:49:21;;;;;;;;;;;;;;;22.12;68.96;100046.69;5137038;27;1587;-71
2021/05/09 13:52:06;;;;;;;;;;;;;;;22.10;68.97;100029.22;5133812;27;1275;-68
2021/05/09 13:54:51;;;;;;;;;;;;;;;22.12;68.63;100016.66;5136207;27;1329;-69
2021/05/09 13:57:37;;;;;;;;;;;;;;;22.12;68.90;100001.59;5135024;27;1284;-68
2021/05/09 14:00:22;;;;;;;;;;;;;;;22.15;68.65;99989.88;5137110;27;1429;-68
2021/05/09 14:03:07;;;;;;;;;;;;;;;22.15;68.66;99980.13;5132913;27;1126;-70
2021/05/09 14:05:52;;;;;;;;;;;;;;;22.14;68.25;99967.81;5136107;27;1909;-71
2021/05/09 14:08:36;;;;;;;;;;;;;;;22.16;68.16;99936.69;5129707;27;1115;-70
2021/05/09 14:11:21;;;;;;;;;;;;;;;22.14;68.47;99917.41;5134576;27;1338;-72
2021/05/09 14:14:06;;;;;;;;;;;;;;;22.16;68.53;99925.25;5120308;27;974;-72
2021/05/09 14:16:51;;;;;;;;;;;;;;;22.14;68.60;99916.56;5134238;27;1334;-72
2021/05/09 14:19:37;;;;;;;;;;;;;;;22.12;68.37;99927.34;5133166;27;1109;-72
2021/05/09 14:22:21;;;;;;;;;;;;;;;22.13;68.43;99934.28;5117241;27;1204;-71
2021/05/09 14:25:07;;;;;;;;;;;;;;;22.14;68.02;99937.78;5132959;27;1953;-71